createdAt,value
2022-08-05T00:00:55.205Z,74.43
2022-08-05T00:03:28.081Z,74.31
2022-08-05T00:06:06.403Z,73.66
2022-08-05T00:08:45.396Z,73.45
2022-08-05T00:11:20.656Z,72.98
2022-08-05T00:13:55.065Z,73.06
2022-08-05T00:16:36.165Z,71.38
2022-08-05T00:19:08.661Z,71.57
2022-08-05T00:21:35.864Z,70.66
2022-08-05T00:24:11.060Z,71.77
2022-08-05T00:26:50.539Z,71.54
2022-08-05T00:29:18.423Z,70.79
2022-08-05T00:32:11.216Z,71.79
2022-08-05T00:34:53.626Z,72.42
2022-08-05T00:37:22.527Z,72.21
2022-08-05T00:39:58.812Z,72.58
2022-08-05T00:42:37.122Z,72.77
2022-08-05T00:45:08.435Z,72.79
2022-08-05T00:47:56.249Z,73.58
2022-08-05T00:50:25.433Z,73.83
2022-08-05T00:52:53.307Z,73.91
2022-08-05T00:55:21.530Z,74.30
2022-08-05T00:57:55.503Z,74.67
2022-08-05T01:00:29.139Z,76.00
2022-08-05T01:02:56.911Z,76.29
2022-08-05T01:05:24.850Z,76.62
2022-08-05T01:08:41.029Z,76.67
2022-08-05T01:10:52.495Z,76.66
2022-08-05T01:13:57.765Z,76.67
2022-08-05T01:16:26.462Z,75.49
2022-08-05T01:19:01.102Z,75.44
2022-08-05T01:21:59.956Z,76.37
2022-08-05T01:24:35.682Z,77.21
2022-08-05T01:27:50.613Z,77.81
2022-08-05T01:30:34.279Z,78.20
2022-08-05T01:33:06.242Z,79.04
2022-08-05T01:35:51.833Z,79.39
2022-08-05T01:38:27.137Z,79.89
2022-08-05T01:41:00.068Z,79.45
2022-08-05T01:43:29.832Z,78.45
2022-08-05T01:45:57.774Z,78.37
2022-08-05T01:48:27.225Z,78.30
2022-08-05T01:50:56.695Z,78.87
2022-08-05T01:53:54.604Z,79.51
2022-08-05T01:58:10.296Z,80.28
2022-08-05T01:59:06.438Z,80.70
2022-08-05T02:01:39.993Z,80.71
2022-08-05T02:04:10.274Z,80.61
2022-08-05T02:06:39.106Z,80.28
2022-08-05T02:09:07.124Z,80.30
2022-08-05T02:12:04.908Z,81.48
2022-08-05T02:15:12.262Z,82.01
2022-08-05T02:18:28.404Z,82.49
2022-08-05T02:20:46.943Z,82.67
2022-08-05T02:23:14.949Z,82.15
2022-08-05T02:25:49.761Z,82.32
2022-08-05T02:28:29.202Z,82.55
2022-08-05T02:31:14.340Z,83.36
2022-08-05T02:33:48.543Z,83.57
2022-08-05T02:36:19.247Z,83.26
2022-08-05T02:38:53.174Z,82.33
2022-08-05T02:41:22.888Z,82.67
2022-08-05T02:44:06.172Z,83.27
2022-08-05T02:46:43.883Z,83.84
2022-08-05T02:49:21.890Z,83.95
2022-08-05T02:52:03.165Z,84.12
2022-08-05T02:54:36.373Z,84.52
2022-08-05T02:57:10.047Z,84.98
2022-08-05T02:59:55.268Z,85.38
2022-08-05T03:02:29.588Z,85.68
2022-08-05T03:04:57.861Z,85.74
2022-08-05T03:07:59.272Z,85.29
2022-08-05T03:10:21.731Z,85.63
2022-08-05T03:12:54.155Z,85.79
2022-08-05T03:15:23.772Z,86.11
2022-08-05T03:17:54.268Z,85.76
2022-08-05T03:20:22.325Z,85.65
2022-08-05T03:22:51.100Z,85.54
2022-08-05T03:25:33.878Z,85.21
2022-08-05T03:28:08.245Z,85.09
2022-08-05T03:30:36.753Z,85.43
2022-08-05T03:33:06.324Z,85.43
2022-08-05T03:35:41.052Z,84.94
2022-08-05T03:38:11.527Z,85.63
2022-08-05T03:40:48.439Z,85.05
2022-08-05T03:44:08.202Z,84.70
2022-08-05T03:46:04.667Z,84.40
2022-08-05T03:48:35.387Z,84.04
2022-08-05T03:52:48.274Z,84.60
2022-08-05T03:55:07.010Z,84.85
2022-08-05T03:57:34.172Z,84.61
2022-08-05T03:59:56.130Z,83.62
2022-08-05T04:02:38.628Z,83.38
2022-08-05T04:05:12.992Z,83.34
2022-08-05T04:07:57.730Z,83.26
2022-08-05T04:10:32.043Z,82.82
2022-08-05T04:13:03.386Z,81.74
2022-08-05T04:15:33.152Z,81.64
2022-08-05T04:18:07.034Z,82.19
2022-08-05T04:20:34.516Z,82.24
2022-08-05T04:23:01.558Z,82.29
2022-08-05T04:25:56.500Z,82.16
2022-08-05T04:28:15.154Z,82.59
2022-08-05T04:30:45.103Z,82.65
2022-08-05T04:33:12.570Z,82.60
2022-08-05T04:36:10.945Z,82.70
2022-08-05T04:38:39.218Z,83.10
2022-08-05T04:41:07.514Z,82.98
2022-08-05T04:43:36.429Z,82.82
2022-08-05T04:46:04.623Z,82.98
2022-08-05T04:48:32.351Z,82.47
2022-08-05T04:51:03.774Z,81.98
2022-08-05T04:53:38.799Z,81.10
2022-08-05T04:56:15.129Z,81.13
2022-08-05T04:58:54.656Z,80.75
2022-08-05T05:02:06.075Z,80.16
2022-08-05T05:04:07.910Z,80.01
2022-08-05T05:06:44.866Z,79.58
2022-08-05T05:09:18.320Z,79.94
2022-08-05T05:11:53.237Z,79.85
2022-08-05T05:14:27.720Z,79.68
2022-08-05T05:17:01.470Z,79.76
2022-08-05T05:19:36.776Z,79.75
2022-08-05T05:22:23.991Z,78.74
2022-08-05T05:24:57.352Z,78.15
2022-08-05T05:27:25.245Z,78.42
2022-08-05T05:30:29.852Z,78.29
2022-08-05T05:32:56.137Z,77.59
2022-08-05T05:35:23.181Z,78.26
2022-08-05T05:38:00.245Z,78.14
2022-08-05T05:40:30.034Z,78.18
2022-08-05T05:43:00.056Z,77.38
2022-08-05T05:45:29.462Z,77.92
2022-08-05T05:48:07.954Z,77.79
2022-08-05T05:50:43.920Z,77.30
2022-08-05T05:53:22.247Z,76.48
2022-08-05T05:55:51.655Z,76.84
2022-08-05T05:58:30.397Z,77.34
2022-08-05T06:01:12.877Z,77.51
2022-08-05T06:04:01.077Z,78.27
2022-08-05T06:06:31.368Z,79.28
2022-08-05T06:09:00.025Z,79.86
2022-08-05T06:11:28.858Z,81.63
2022-08-05T06:13:55.919Z,84.01
2022-08-05T06:16:29.866Z,85.73
2022-08-05T06:19:00.286Z,91.67
2022-08-05T06:21:36.690Z,94.00
2022-08-05T06:24:11.921Z,95.70
2022-08-05T06:26:51.557Z,96.69
2022-08-05T06:29:25.306Z,98.55
2022-08-05T06:32:24.978Z,100.00
2022-08-05T06:34:56.345Z,100.00
2022-08-05T06:37:57.561Z,100.00
2022-08-05T06:40:12.091Z,100.00
2022-08-05T06:42:39.890Z,100.00
2022-08-05T06:45:09.070Z,100.00
2022-08-05T06:48:36.988Z,100.00
2022-08-05T06:50:27.083Z,100.00
2022-08-05T06:53:03.986Z,100.00
2022-08-05T06:55:38.502Z,100.00
2022-08-05T06:58:19.683Z,100.00
2022-08-05T07:01:04.172Z,100.00
2022-08-05T07:03:32.767Z,100.00
2022-08-05T07:06:05.845Z,100.00
2022-08-05T07:08:47.183Z,100.00
2022-08-05T07:11:15.875Z,100.00
2022-08-05T07:14:02.135Z,100.00
2022-08-05T07:17:59.875Z,100.00
2022-08-05T07:22:28.215Z,100.00
2022-08-05T07:25:22.868Z,100.00
2022-08-05T07:27:57.134Z,100.00
2022-08-05T07:30:31.701Z,100.00
2022-08-05T07:33:05.108Z,100.00
2022-08-05T07:36:04.062Z,100.00
2022-08-05T07:38:32.993Z,100.00
2022-08-05T07:42:08.032Z,100.00
2022-08-05T07:43:57.068Z,100.00
2022-08-05T07:46:30.653Z,100.00
2022-08-05T07:49:02.217Z,100.00
2022-08-05T07:51:48.525Z,100.00
2022-08-05T07:54:23.196Z,100.00
2022-08-05T07:57:14.790Z,100.00
2022-08-05T07:59:41.084Z,100.00
2022-08-05T08:02:16.902Z,100.00
2022-08-05T08:04:48.371Z,100.00
2022-08-05T08:07:17.978Z,100.00
2022-08-05T08:09:46.065Z,100.00
2022-08-05T08:12:35.083Z,100.00
2022-08-05T08:15:04.336Z,99.40
2022-08-05T08:17:35.422Z,98.10
2022-08-05T08:20:44.605Z,98.61
2022-08-05T08:22:56.564Z,96.20
2022-08-05T08:25:35.975Z,96.33
2022-08-05T08:28:18.275Z,94.84
2022-08-05T08:30:57.626Z,93.96
2022-08-05T08:33:24.299Z,93.56
2022-08-05T08:36:07.975Z,95.09
2022-08-05T08:38:40.912Z,94.66
2022-08-05T08:41:10.528Z,93.08
2022-08-05T08:45:19.056Z,91.96
2022-08-05T08:46:31.232Z,92.28
2022-08-05T08:49:09.532Z,92.87
2022-08-05T08:52:06.154Z,93.76
2022-08-05T08:54:42.263Z,91.81
2022-08-05T08:57:11.443Z,89.99
2022-08-05T08:59:47.431Z,90.66
2022-08-05T09:02:17.744Z,90.08
2022-08-05T09:04:58.578Z,89.54
2022-08-05T09:07:39.879Z,89.80
2022-08-05T09:10:27.646Z,89.23
2022-08-05T09:12:55.564Z,89.26
2022-08-05T09:15:22.955Z,89.52
2022-08-05T09:17:53.080Z,89.79
2022-08-05T09:20:36.300Z,89.68
2022-08-05T09:23:18.821Z,87.85
2022-08-05T09:26:01.346Z,87.42
2022-08-05T09:28:32.078Z,84.08
2022-08-05T09:31:23.023Z,84.48
2022-08-05T09:34:05.204Z,84.91
2022-08-05T09:36:54.593Z,84.71
2022-08-05T09:39:24.593Z,85.25
2022-08-05T09:42:07.765Z,82.98
2022-08-05T09:44:38.325Z,83.31
2022-08-05T09:47:15.598Z,84.45
2022-08-05T09:50:02.248Z,80.40
2022-08-05T09:52:36.021Z,80.93
2022-08-05T09:55:56.421Z,82.68
2022-08-05T09:57:59.955Z,82.87
2022-08-05T10:00:27.746Z,80.68
2022-08-05T10:02:58.242Z,81.43
2022-08-05T10:05:27.972Z,79.67
2022-08-05T10:08:34.817Z,79.93
2022-08-05T10:10:53.969Z,78.63
2022-08-05T10:13:47.175Z,75.59
2022-08-05T10:16:41.912Z,76.15
2022-08-05T10:19:23.761Z,77.23
2022-08-05T10:21:59.040Z,74.77
2022-08-05T10:24:27.159Z,73.59
2022-08-05T10:26:56.234Z,73.07
2022-08-05T10:30:41.540Z,72.28
2022-08-05T10:33:01.989Z,70.86
2022-08-05T10:35:03.324Z,68.33
2022-08-05T10:37:40.311Z,69.53
2022-08-05T10:40:27.791Z,69.62
2022-08-05T10:43:01.747Z,68.33
2022-08-05T10:45:39.823Z,69.61
2022-08-05T10:48:52.315Z,68.59
2022-08-05T10:51:29.014Z,66.27
2022-08-05T10:54:01.809Z,65.96
2022-08-05T10:56:45.078Z,66.54
2022-08-05T11:00:04.430Z,64.60
2022-08-05T11:02:37.508Z,63.71
2022-08-05T11:05:08.552Z,63.58
2022-08-05T11:08:02.605Z,63.84
2022-08-05T11:10:37.274Z,63.18
2022-08-05T11:13:06.533Z,63.46
2022-08-05T11:16:00.987Z,63.64
2022-08-05T11:18:34.282Z,62.44
2022-08-05T11:21:11.357Z,61.79
2022-08-05T11:24:03.996Z,62.09
2022-08-05T11:26:32.841Z,62.03
2022-08-05T11:29:12.880Z,59.86
2022-08-05T11:31:57.453Z,60.90
2022-08-05T11:34:52.214Z,60.49
2022-08-05T11:38:26.403Z,61.04
2022-08-05T11:41:13.913Z,60.41
2022-08-05T11:44:07.577Z,59.95
2022-08-05T11:47:09.829Z,58.07
2022-08-05T11:49:33.753Z,57.70
2022-08-05T11:52:02.003Z,57.63
2022-08-05T11:54:40.592Z,58.98
2022-08-05T11:57:25.563Z,59.91
2022-08-05T11:59:54.302Z,59.33
2022-08-05T12:02:36.031Z,60.18
2022-08-05T12:05:07.328Z,61.56
2022-08-05T12:08:07.310Z,61.93
2022-08-05T12:10:38.529Z,61.98
2022-08-05T12:13:15.501Z,60.68
2022-08-05T12:15:49.657Z,61.91
2022-08-05T12:18:32.754Z,62.43
2022-08-05T12:21:15.226Z,63.02
2022-08-05T12:23:52.840Z,64.95
2022-08-05T12:26:19.843Z,65.37
2022-08-05T12:28:48.762Z,66.11
2022-08-05T12:31:23.668Z,66.05
2022-08-05T12:34:06.055Z,67.88
2022-08-05T12:36:33.765Z,68.70
2022-08-05T12:39:05.559Z,69.32
2022-08-05T12:41:35.662Z,69.45
2022-08-05T12:44:14.220Z,69.86
2022-08-05T12:46:45.591Z,69.74
2022-08-05T12:49:15.040Z,72.32
2022-08-05T12:52:13.481Z,73.33
2022-08-05T12:54:35.620Z,73.77
2022-08-05T12:57:09.507Z,74.61
2022-08-05T13:01:56.754Z,75.96
2022-08-05T13:02:37.174Z,76.76
2022-08-05T13:05:07.259Z,77.39
2022-08-05T13:10:21.761Z,77.33
2022-08-05T13:12:57.183Z,78.14
2022-08-05T13:15:41.922Z,77.56
2022-08-05T13:18:20.014Z,77.25
2022-08-05T13:20:49.163Z,76.41
2022-08-05T13:23:18.094Z,75.78
2022-08-05T13:25:52.120Z,74.96
2022-08-05T13:28:25.976Z,74.72
2022-08-05T13:30:53.372Z,73.94
2022-08-05T13:34:21.031Z,72.36
2022-08-05T13:36:09.162Z,71.82
2022-08-05T13:38:38.413Z,71.37
2022-08-05T13:41:09.995Z,71.08
2022-08-05T13:43:44.682Z,71.37
2022-08-05T13:46:37.781Z,69.64
2022-08-05T13:49:10.261Z,68.88
2022-08-05T13:51:41.057Z,68.63
2022-08-05T13:54:13.639Z,69.20
2022-08-05T13:56:45.237Z,68.76
2022-08-05T13:59:24.207Z,69.40
2022-08-05T14:01:58.926Z,69.55
2022-08-05T14:04:53.175Z,69.33
2022-08-05T14:07:55.746Z,68.66
2022-08-05T14:10:19.048Z,68.78
2022-08-05T14:12:55.238Z,69.97
2022-08-05T14:16:05.996Z,69.00
2022-08-05T14:18:15.151Z,68.43
2022-08-05T14:20:47.949Z,68.47
2022-08-05T14:23:24.522Z,68.18
2022-08-05T14:25:53.944Z,68.26
2022-08-05T14:28:26.355Z,68.55
2022-08-05T14:31:01.355Z,68.17
2022-08-05T14:33:32.620Z,67.96
2022-08-05T14:36:15.463Z,68.05
2022-08-05T14:38:42.149Z,67.42
2022-08-05T14:41:11.311Z,68.04
2022-08-05T14:43:58.833Z,67.37
2022-08-05T14:46:31.493Z,67.97
2022-08-05T14:49:07.566Z,67.15
2022-08-05T14:51:39.019Z,66.22
2022-08-05T14:54:28.527Z,65.46
2022-08-05T14:56:58.471Z,65.19
2022-08-05T14:59:29.538Z,64.39
2022-08-05T15:02:02.446Z,63.24
2022-08-05T15:04:29.678Z,62.24
2022-08-05T15:06:56.352Z,63.58
2022-08-05T15:09:52.223Z,65.49
2022-08-05T15:12:11.686Z,66.88
2022-08-05T15:14:49.473Z,67.49
2022-08-05T15:17:47.456Z,68.86
2022-08-05T15:20:06.034Z,69.70
2022-08-05T15:22:32.798Z,69.81
2022-08-05T15:25:00.539Z,71.25
2022-08-05T15:27:38.687Z,71.92
2022-08-05T15:30:11.020Z,72.78
2022-08-05T15:32:41.105Z,74.12
2022-08-05T15:35:10.685Z,74.64
2022-08-05T15:38:34.273Z,74.72
2022-08-05T15:41:04.794Z,75.47
2022-08-05T15:43:20.293Z,74.46
2022-08-05T15:46:00.431Z,76.01
2022-08-05T15:48:28.625Z,76.08
2022-08-05T15:50:55.240Z,76.73
2022-08-05T15:53:23.336Z,77.59
2022-08-05T15:56:02.723Z,77.35
2022-08-05T15:58:35.593Z,77.41
2022-08-05T16:01:17.064Z,75.86
2022-08-05T16:03:48.281Z,75.56
2022-08-05T16:06:15.901Z,75.49
2022-08-05T16:08:47.625Z,74.00
2022-08-05T16:11:14.232Z,72.55
2022-08-05T16:13:41.702Z,70.71
2022-08-05T16:16:10.845Z,69.21
2022-08-05T16:18:52.513Z,69.83
2022-08-05T16:21:20.812Z,68.69
2022-08-05T16:24:12.626Z,67.83
2022-08-05T16:27:09.599Z,67.74
2022-08-05T16:29:37.424Z,68.00
2022-08-05T16:32:09.644Z,67.51
2022-08-05T16:34:37.134Z,68.69
2022-08-05T16:38:10.576Z,67.39
2022-08-05T16:40:04.818Z,66.68
2022-08-05T16:42:34.389Z,65.29
2022-08-05T16:45:01.566Z,64.64
2022-08-05T16:47:36.341Z,61.86
2022-08-05T16:50:15.283Z,60.16
2022-08-05T16:52:45.975Z,58.58
2022-08-05T16:55:12.973Z,59.79
2022-08-05T16:57:53.247Z,58.89
2022-08-05T17:00:35.106Z,59.24
2022-08-05T17:03:09.286Z,57.49
2022-08-05T17:05:48.963Z,58.32
2022-08-05T17:08:36.073Z,60.23
2022-08-05T17:11:08.875Z,59.76
2022-08-05T17:13:41.428Z,59.49
2022-08-05T17:16:28.108Z,57.96
2022-08-05T17:18:55.582Z,54.31
2022-08-05T17:21:23.748Z,53.76
2022-08-05T17:24:04.959Z,51.09
2022-08-05T17:26:36.227Z,48.67
2022-08-05T17:29:07.580Z,49.76
2022-08-05T17:31:56.442Z,49.40
2022-08-05T17:34:29.449Z,48.78
2022-08-05T17:36:57.078Z,48.82
2022-08-05T17:39:29.899Z,49.61
2022-08-05T17:42:18.439Z,50.18
2022-08-05T17:44:50.464Z,51.47
2022-08-05T17:47:22.108Z,49.31
2022-08-05T17:50:00.457Z,49.95
2022-08-05T17:52:32.538Z,49.57
2022-08-05T17:55:00.231Z,48.95
2022-08-05T17:57:27.917Z,50.15
2022-08-05T18:00:04.818Z,51.07
2022-08-05T18:02:31.931Z,51.41
2022-08-05T18:04:58.957Z,50.93
2022-08-05T18:07:32.738Z,50.35
2022-08-05T18:10:10.426Z,51.30
2022-08-05T18:12:37.649Z,51.55
2022-08-05T18:15:04.965Z,52.15
2022-08-05T18:17:58.635Z,52.01
2022-08-05T18:20:19.567Z,52.01
2022-08-05T18:22:57.529Z,52.24
2022-08-05T18:25:25.021Z,52.83
2022-08-05T18:27:52.812Z,52.94
2022-08-05T18:30:19.738Z,54.69
2022-08-05T18:32:53.037Z,55.31
2022-08-05T18:35:21.031Z,56.25
2022-08-05T18:38:08.332Z,57.14
2022-08-05T18:41:56.091Z,57.33
2022-08-05T18:43:21.945Z,57.94
2022-08-05T18:45:49.776Z,58.45
2022-08-05T18:48:30.650Z,59.20
2022-08-05T18:52:03.029Z,59.02
2022-08-05T18:54:04.055Z,59.72
2022-08-05T18:56:30.671Z,59.97
2022-08-05T18:59:01.159Z,60.69
2022-08-05T19:01:47.274Z,61.29
2022-08-05T19:04:14.896Z,61.42
2022-08-05T19:06:50.914Z,62.08
2022-08-05T19:09:17.659Z,62.40
2022-08-05T19:12:00.027Z,62.37
2022-08-05T19:14:37.808Z,63.02
2022-08-05T19:17:15.673Z,62.92
2022-08-05T19:19:46.660Z,63.20
2022-08-05T19:22:17.100Z,62.61
2022-08-05T19:24:54.627Z,62.63
2022-08-05T19:27:23.026Z,62.50
2022-08-05T19:29:50.046Z,62.58
2022-08-05T19:32:16.648Z,62.76
2022-08-05T19:34:54.527Z,62.42
2022-08-05T19:37:29.867Z,62.17
2022-08-05T19:40:02.580Z,62.05
2022-08-05T19:42:36.306Z,61.94
2022-08-05T19:45:06.431Z,62.14
2022-08-05T19:47:41.166Z,62.09
2022-08-05T19:50:10.562Z,62.27
2022-08-05T19:52:39.308Z,62.96
2022-08-05T19:56:11.492Z,63.71
2022-08-05T19:58:07.023Z,63.97
2022-08-05T20:00:40.396Z,64.26
2022-08-05T20:03:08.557Z,64.25
2022-08-05T20:05:49.913Z,64.92
2022-08-05T20:08:17.171Z,65.20
2022-08-05T20:10:43.825Z,65.44
2022-08-05T20:13:12.081Z,65.90
2022-08-05T20:15:50.764Z,66.45
2022-08-05T20:18:35.803Z,66.50
2022-08-05T20:21:05.144Z,66.76
2022-08-05T20:23:39.324Z,66.73
2022-08-05T20:26:17.805Z,67.29
2022-08-05T20:28:50.233Z,67.39
2022-08-05T20:31:21.886Z,67.95
2022-08-05T20:33:55.205Z,67.89
2022-08-05T20:36:22.560Z,68.71
2022-08-05T20:38:54.199Z,68.80
2022-08-05T20:41:27.075Z,69.87
2022-08-05T20:44:19.436Z,69.75
2022-08-05T20:46:58.116Z,70.24
2022-08-05T20:49:26.082Z,70.48
2022-08-05T20:51:57.922Z,70.95
2022-08-05T20:54:55.349Z,70.53
2022-08-05T20:57:14.351Z,70.49
2022-08-05T21:00:10.147Z,70.39
2022-08-05T21:02:28.321Z,70.39
2022-08-05T21:04:56.181Z,69.86
2022-08-05T21:07:24.390Z,69.56
2022-08-05T21:09:54.552Z,69.26
2022-08-05T21:12:26.729Z,68.80
2022-08-05T21:14:53.958Z,69.15
2022-08-05T21:17:22.460Z,68.75
2022-08-05T21:19:55.232Z,68.47
2022-08-05T21:22:23.428Z,68.31
2022-08-05T21:24:54.230Z,69.30
2022-08-05T21:27:24.786Z,69.29
2022-08-05T21:29:54.082Z,69.71
2022-08-05T21:32:27.858Z,69.95
2022-08-05T21:35:17.842Z,69.36
2022-08-05T21:37:47.283Z,68.95
2022-08-05T21:40:26.817Z,68.89
2022-08-05T21:42:54.237Z,68.72
2022-08-05T21:45:56.291Z,68.51
2022-08-05T21:48:16.289Z,68.74
2022-08-05T21:50:54.059Z,68.73
2022-08-05T21:53:27.639Z,69.76
2022-08-05T21:56:05.296Z,69.83
2022-08-05T21:58:42.245Z,70.85
2022-08-05T22:01:11.941Z,71.51
2022-08-05T22:03:53.913Z,72.68
2022-08-05T22:06:35.324Z,73.92
2022-08-05T22:09:13.547Z,74.52
2022-08-05T22:11:47.627Z,75.35
2022-08-05T22:14:33.685Z,75.47
2022-08-05T22:17:04.926Z,76.60
2022-08-05T22:19:57.431Z,77.46
2022-08-05T22:22:31.291Z,78.08
2022-08-05T22:25:21.115Z,78.20
2022-08-05T22:28:09.415Z,78.75
2022-08-05T22:30:55.859Z,79.33
2022-08-05T22:33:57.323Z,79.87
2022-08-05T22:36:17.669Z,80.24
2022-08-05T22:38:49.136Z,80.43
2022-08-05T22:42:05.445Z,80.27
2022-08-05T22:44:04.908Z,80.47
2022-08-05T22:46:33.757Z,80.59
2022-08-05T22:49:06.640Z,80.05
2022-08-05T22:52:07.105Z,79.75
2022-08-05T22:54:23.557Z,79.42
2022-08-05T22:56:52.554Z,78.73
2022-08-05T22:59:44.251Z,77.74
2022-08-05T23:02:07.968Z,76.42
2022-08-05T23:04:40.115Z,76.02
2022-08-05T23:07:07.174Z,74.62
2022-08-05T23:09:57.437Z,73.72
2022-08-05T23:12:24.699Z,73.13
2022-08-05T23:14:54.262Z,72.29
2022-08-05T23:17:34.803Z,71.56
2022-08-05T23:20:16.719Z,71.08
2022-08-05T23:22:50.931Z,70.99
2022-08-05T23:25:53.571Z,70.91
2022-08-05T23:28:10.770Z,71.03
2022-08-05T23:30:40.103Z,70.29
2022-08-05T23:33:22.245Z,69.75
2022-08-05T23:35:56.208Z,68.22
2022-08-05T23:38:32.749Z,65.83
2022-08-05T23:40:59.395Z,64.78
2022-08-05T23:44:04.568Z,64.09
2022-08-05T23:46:20.315Z,63.75
2022-08-05T23:48:59.248Z,62.99
2022-08-05T23:51:52.720Z,63.65
2022-08-05T23:54:30.001Z,63.58
2022-08-05T23:57:03.783Z,63.96
2022-08-05T23:59:37.335Z,64.22
